sensor_id;sensor_type;location;lat;lon;timestamp;P1;durP1;ratioP1;P2;durP2;ratioP2
20067;SDS011;10194;50.824;7.134;2023-04-06T00:01:55;265.37;;;243.07;;
20067;SDS011;10194;50.824;7.134;2023-04-06T00:04:21;265.53;;;243.03;;
20067;SDS011;10194;50.824;7.134;2023-04-06T00:06:46;265.87;;;243.30;;
20067;SDS011;10194;50.824;7.134;2023-04-06T00:09:12;267.10;;;244.93;;
20067;SDS011;10194;50.824;7.134;2023-04-06T00:11:38;270.77;;;248.43;;
20067;SDS011;10194;50.824;7.134;2023-04-06T00:14:04;265.00;;;242.93;;
20067;SDS011;10194;50.824;7.134;2023-04-06T00:16:30;271.33;;;248.60;;
20067;SDS011;10194;50.824;7.134;2023-04-06T00:18:55;266.80;;;244.70;;
20067;SDS011;10194;50.824;7.134;2023-04-06T00:21:21;270.53;;;248.00;;
20067;SDS011;10194;50.824;7.134;2023-04-06T00:23:47;272.77;;;250.13;;
20067;SDS011;10194;50.824;7.134;2023-04-06T00:26:13;271.17;;;248.83;;
20067;SDS011;10194;50.824;7.134;2023-04-06T00:28:38;269.77;;;246.77;;
20067;SDS011;10194;50.824;7.134;2023-04-06T00:31:04;270.53;;;248.37;;
20067;SDS011;10194;50.824;7.134;2023-04-06T00:33:30;269.60;;;247.00;;
20067;SDS011;10194;50.824;7.134;2023-04-06T00:35:56;274.00;;;251.10;;
20067;SDS011;10194;50.824;7.134;2023-04-06T00:38:21;271.47;;;248.27;;
20067;SDS011;10194;50.824;7.134;2023-04-06T00:40:47;271.13;;;247.83;;
20067;SDS011;10194;50.824;7.134;2023-04-06T00:43:13;269.30;;;246.97;;
20067;SDS011;10194;50.824;7.134;2023-04-06T00:45:39;272.50;;;249.60;;
20067;SDS011;10194;50.824;7.134;2023-04-06T00:48:06;270.97;;;248.40;;
20067;SDS011;10194;50.824;7.134;2023-04-06T00:50:33;271.77;;;249.23;;
20067;SDS011;10194;50.824;7.134;2023-04-06T00:53:00;270.57;;;247.63;;
20067;SDS011;10194;50.824;7.134;2023-04-06T00:55:26;274.03;;;251.03;;
20067;SDS011;10194;50.824;7.134;2023-04-06T00:57:53;267.40;;;244.70;;
20067;SDS011;10194;50.824;7.134;2023-04-06T01:00:19;269.90;;;247.07;;
20067;SDS011;10194;50.824;7.134;2023-04-06T01:02:46;271.20;;;248.33;;
20067;SDS011;10194;50.824;7.134;2023-04-06T01:05:12;269.77;;;247.50;;
20067;SDS011;10194;50.824;7.134;2023-04-06T01:07:38;268.73;;;246.53;;
20067;SDS011;10194;50.824;7.134;2023-04-06T01:10:05;267.57;;;245.27;;
20067;SDS011;10194;50.824;7.134;2023-04-06T01:12:31;269.83;;;247.03;;
20067;SDS011;10194;50.824;7.134;2023-04-06T01:14:57;263.93;;;242.00;;
20067;SDS011;10194;50.824;7.134;2023-04-06T01:17:24;266.80;;;243.97;;
20067;SDS011;10194;50.824;7.134;2023-04-06T01:19:50;267.20;;;244.97;;
20067;SDS011;10194;50.824;7.134;2023-04-06T01:22:18;260.90;;;239.17;;
20067;SDS011;10194;50.824;7.134;2023-04-06T01:24:44;263.30;;;241.37;;
20067;SDS011;10194;50.824;7.134;2023-04-06T01:27:11;264.73;;;242.57;;
20067;SDS011;10194;50.824;7.134;2023-04-06T01:29:38;268.43;;;245.87;;
20067;SDS011;10194;50.824;7.134;2023-04-06T01:32:07;269.40;;;247.33;;
20067;SDS011;10194;50.824;7.134;2023-04-06T01:34:33;269.47;;;247.20;;
20067;SDS011;10194;50.824;7.134;2023-04-06T01:36:59;264.80;;;242.63;;
20067;SDS011;10194;50.824;7.134;2023-04-06T01:39:25;267.47;;;245.20;;
20067;SDS011;10194;50.824;7.134;2023-04-06T01:41:51;263.57;;;241.63;;
20067;SDS011;10194;50.824;7.134;2023-04-06T01:44:17;259.80;;;237.93;;
20067;SDS011;10194;50.824;7.134;2023-04-06T01:46:44;266.90;;;244.77;;
20067;SDS011;10194;50.824;7.134;2023-04-06T01:49:10;264.27;;;242.40;;
20067;SDS011;10194;50.824;7.134;2023-04-06T01:51:37;266.63;;;244.27;;
20067;SDS011;10194;50.824;7.134;2023-04-06T01:54:03;265.40;;;243.07;;
20067;SDS011;10194;50.824;7.134;2023-04-06T01:56:29;263.53;;;241.37;;
20067;SDS011;10194;50.824;7.134;2023-04-06T01:58:55;258.80;;;236.93;;
20067;SDS011;10194;50.824;7.134;2023-04-06T02:01:21;262.40;;;240.07;;
20067;SDS011;10194;50.824;7.134;2023-04-06T02:03:47;259.47;;;237.43;;
20067;SDS011;10194;50.824;7.134;2023-04-06T02:06:12;257.13;;;235.03;;
20067;SDS011;10194;50.824;7.134;2023-04-06T02:08:38;258.20;;;236.50;;
20067;SDS011;10194;50.824;7.134;2023-04-06T02:11:04;261.67;;;239.97;;
20067;SDS011;10194;50.824;7.134;2023-04-06T02:13:30;259.57;;;237.57;;
20067;SDS011;10194;50.824;7.134;2023-04-06T02:15:56;264.53;;;242.17;;
20067;SDS011;10194;50.824;7.134;2023-04-06T02:18:23;262.33;;;240.40;;
20067;SDS011;10194;50.824;7.134;2023-04-06T02:20:49;257.43;;;235.30;;
20067;SDS011;10194;50.824;7.134;2023-04-06T02:23:15;259.80;;;238.03;;
20067;SDS011;10194;50.824;7.134;2023-04-06T02:25:40;256.37;;;234.53;;
20067;SDS011;10194;50.824;7.134;2023-04-06T02:28:06;259.10;;;237.27;;
20067;SDS011;10194;50.824;7.134;2023-04-06T02:30:32;256.67;;;234.90;;
20067;SDS011;10194;50.824;7.134;2023-04-06T02:33:02;261.40;;;239.57;;
20067;SDS011;10194;50.824;7.134;2023-04-06T02:35:28;259.40;;;237.77;;
20067;SDS011;10194;50.824;7.134;2023-04-06T02:37:55;260.10;;;238.43;;
20067;SDS011;10194;50.824;7.134;2023-04-06T02:40:21;260.97;;;239.17;;
20067;SDS011;10194;50.824;7.134;2023-04-06T02:42:47;260.17;;;238.07;;
20067;SDS011;10194;50.824;7.134;2023-04-06T02:45:13;254.33;;;233.07;;
20067;SDS011;10194;50.824;7.134;2023-04-06T02:47:39;261.77;;;240.03;;
20067;SDS011;10194;50.824;7.134;2023-04-06T02:50:05;263.27;;;241.00;;
20067;SDS011;10194;50.824;7.134;2023-04-06T02:52:31;263.83;;;241.73;;
20067;SDS011;10194;50.824;7.134;2023-04-06T02:54:57;261.10;;;239.23;;
20067;SDS011;10194;50.824;7.134;2023-04-06T02:57:23;260.77;;;239.03;;
20067;SDS011;10194;50.824;7.134;2023-04-06T02:59:49;260.27;;;238.57;;
20067;SDS011;10194;50.824;7.134;2023-04-06T03:02:15;264.63;;;242.57;;
20067;SDS011;10194;50.824;7.134;2023-04-06T03:04:41;263.97;;;241.77;;
20067;SDS011;10194;50.824;7.134;2023-04-06T03:07:07;263.93;;;241.90;;
20067;SDS011;10194;50.824;7.134;2023-04-06T03:09:33;262.67;;;240.50;;
20067;SDS011;10194;50.824;7.134;2023-04-06T03:12:02;263.53;;;240.87;;
20067;SDS011;10194;50.824;7.134;2023-04-06T03:14:28;262.50;;;240.63;;
20067;SDS011;10194;50.824;7.134;2023-04-06T03:16:53;262.67;;;240.77;;
20067;SDS011;10194;50.824;7.134;2023-04-06T03:19:19;263.07;;;241.23;;
20067;SDS011;10194;50.824;7.134;2023-04-06T03:21:45;262.53;;;240.50;;
20067;SDS011;10194;50.824;7.134;2023-04-06T03:24:11;260.70;;;238.80;;
20067;SDS011;10194;50.824;7.134;2023-04-06T03:26:38;261.67;;;239.87;;
20067;SDS011;10194;50.824;7.134;2023-04-06T03:29:04;265.13;;;243.30;;
20067;SDS011;10194;50.824;7.134;2023-04-06T03:31:30;267.00;;;244.53;;
20067;SDS011;10194;50.824;7.134;2023-04-06T03:33:56;263.63;;;241.83;;
20067;SDS011;10194;50.824;7.134;2023-04-06T03:36:22;266.37;;;243.77;;
20067;SDS011;10194;50.824;7.134;2023-04-06T03:38:48;264.00;;;242.20;;
20067;SDS011;10194;50.824;7.134;2023-04-06T03:41:14;265.33;;;243.37;;
20067;SDS011;10194;50.824;7.134;2023-04-06T03:43:39;263.33;;;241.53;;
20067;SDS011;10194;50.824;7.134;2023-04-06T03:46:05;269.37;;;246.67;;
20067;SDS011;10194;50.824;7.134;2023-04-06T03:48:31;261.90;;;240.03;;
20067;SDS011;10194;50.824;7.134;2023-04-06T03:50:57;262.23;;;240.50;;
20067;SDS011;10194;50.824;7.134;2023-04-06T03:53:22;265.43;;;243.57;;
20067;SDS011;10194;50.824;7.134;2023-04-06T03:55:48;260.80;;;239.17;;
20067;SDS011;10194;50.824;7.134;2023-04-06T03:58:14;263.97;;;241.80;;
20067;SDS011;10194;50.824;7.134;2023-04-06T04:00:40;266.20;;;244.20;;
20067;SDS011;10194;50.824;7.134;2023-04-06T04:03:05;263.70;;;241.73;;
20067;SDS011;10194;50.824;7.134;2023-04-06T04:05:31;263.67;;;241.63;;
20067;SDS011;10194;50.824;7.134;2023-04-06T04:07:57;264.80;;;242.60;;
20067;SDS011;10194;50.824;7.134;2023-04-06T04:10:23;260.67;;;238.73;;
20067;SDS011;10194;50.824;7.134;2023-04-06T04:12:48;262.73;;;240.80;;
20067;SDS011;10194;50.824;7.134;2023-04-06T04:15:14;263.30;;;241.23;;
20067;SDS011;10194;50.824;7.134;2023-04-06T04:17:40;261.67;;;239.70;;
20067;SDS011;10194;50.824;7.134;2023-04-06T04:20:06;266.33;;;244.13;;
20067;SDS011;10194;50.824;7.134;2023-04-06T04:22:32;264.33;;;242.57;;
20067;SDS011;10194;50.824;7.134;2023-04-06T04:24:58;268.10;;;246.00;;
20067;SDS011;10194;50.824;7.134;2023-04-06T04:27:24;263.50;;;241.37;;
20067;SDS011;10194;50.824;7.134;2023-04-06T04:29:50;264.67;;;242.87;;
20067;SDS011;10194;50.824;7.134;2023-04-06T04:32:16;263.30;;;241.50;;
20067;SDS011;10194;50.824;7.134;2023-04-06T04:34:42;264.37;;;242.43;;
20067;SDS011;10194;50.824;7.134;2023-04-06T04:37:07;268.20;;;246.43;;
20067;SDS011;10194;50.824;7.134;2023-04-06T04:39:33;266.50;;;244.67;;
20067;SDS011;10194;50.824;7.134;2023-04-06T04:41:59;265.93;;;243.50;;
20067;SDS011;10194;50.824;7.134;2023-04-06T04:44:25;263.87;;;242.20;;
20067;SDS011;10194;50.824;7.134;2023-04-06T04:46:51;265.73;;;243.77;;
20067;SDS011;10194;50.824;7.134;2023-04-06T04:49:17;264.17;;;242.07;;
20067;SDS011;10194;50.824;7.134;2023-04-06T04:51:42;271.00;;;248.80;;
20067;SDS011;10194;50.824;7.134;2023-04-06T04:54:08;268.10;;;246.30;;
20067;SDS011;10194;50.824;7.134;2023-04-06T04:56:34;268.10;;;245.43;;
20067;SDS011;10194;50.824;7.134;2023-04-06T04:59:00;270.17;;;247.63;;
20067;SDS011;10194;50.824;7.134;2023-04-06T05:01:26;263.30;;;241.70;;
20067;SDS011;10194;50.824;7.134;2023-04-06T05:03:52;267.97;;;245.77;;
20067;SDS011;10194;50.824;7.134;2023-04-06T05:06:17;267.27;;;245.23;;
20067;SDS011;10194;50.824;7.134;2023-04-06T05:08:46;270.30;;;247.80;;
20067;SDS011;10194;50.824;7.134;2023-04-06T05:11:12;269.07;;;247.20;;
20067;SDS011;10194;50.824;7.134;2023-04-06T05:13:37;263.03;;;241.00;;
20067;SDS011;10194;50.824;7.134;2023-04-06T05:16:03;268.30;;;246.13;;
20067;SDS011;10194;50.824;7.134;2023-04-06T05:18:29;266.73;;;244.67;;
20067;SDS011;10194;50.824;7.134;2023-04-06T05:20:55;271.43;;;248.43;;
20067;SDS011;10194;50.824;7.134;2023-04-06T05:23:21;267.37;;;245.33;;
20067;SDS011;10194;50.824;7.134;2023-04-06T05:25:47;268.93;;;247.10;;
20067;SDS011;10194;50.824;7.134;2023-04-06T05:28:12;269.60;;;247.53;;
20067;SDS011;10194;50.824;7.134;2023-04-06T05:30:42;267.87;;;245.63;;
20067;SDS011;10194;50.824;7.134;2023-04-06T05:33:09;260.40;;;239.00;;
20067;SDS011;10194;50.824;7.134;2023-04-06T05:35:35;266.77;;;244.23;;
20067;SDS011;10194;50.824;7.134;2023-04-06T05:38:01;265.83;;;243.77;;
20067;SDS011;10194;50.824;7.134;2023-04-06T05:40:27;271.80;;;249.23;;
20067;SDS011;10194;50.824;7.134;2023-04-06T05:42:53;271.83;;;249.73;;
20067;SDS011;10194;50.824;7.134;2023-04-06T05:45:19;274.00;;;251.67;;
20067;SDS011;10194;50.824;7.134;2023-04-06T05:47:46;272.87;;;250.43;;
20067;SDS011;10194;50.824;7.134;2023-04-06T05:50:12;274.10;;;251.30;;
20067;SDS011;10194;50.824;7.134;2023-04-06T05:52:39;272.73;;;250.07;;
20067;SDS011;10194;50.824;7.134;2023-04-06T05:55:08;275.93;;;253.13;;
20067;SDS011;10194;50.824;7.134;2023-04-06T05:57:35;271.80;;;249.57;;
20067;SDS011;10194;50.824;7.134;2023-04-06T06:00:00;273.13;;;250.97;;
20067;SDS011;10194;50.824;7.134;2023-04-06T06:02:30;275.33;;;253.00;;
20067;SDS011;10194;50.824;7.134;2023-04-06T06:04:56;275.57;;;253.13;;
20067;SDS011;10194;50.824;7.134;2023-04-06T06:07:22;278.00;;;255.37;;
20067;SDS011;10194;50.824;7.134;2023-04-06T06:09:48;279.73;;;257.30;;
20067;SDS011;10194;50.824;7.134;2023-04-06T06:12:15;277.70;;;255.53;;
20067;SDS011;10194;50.824;7.134;2023-04-06T06:14:41;284.77;;;262.50;;
20067;SDS011;10194;50.824;7.134;2023-04-06T06:17:06;297.40;;;274.43;;
20067;SDS011;10194;50.824;7.134;2023-04-06T06:19:33;295.97;;;272.83;;
20067;SDS011;10194;50.824;7.134;2023-04-06T06:21:59;292.00;;;267.03;;
20067;SDS011;10194;50.824;7.134;2023-04-06T06:24:27;290.97;;;264.90;;
20067;SDS011;10194;50.824;7.134;2023-04-06T06:26:53;286.23;;;260.83;;
20067;SDS011;10194;50.824;7.134;2023-04-06T06:29:19;292.67;;;267.20;;
20067;SDS011;10194;50.824;7.134;2023-04-06T06:31:44;288.47;;;263.53;;
20067;SDS011;10194;50.824;7.134;2023-04-06T06:34:10;291.17;;;266.00;;
20067;SDS011;10194;50.824;7.134;2023-04-06T06:36:37;286.43;;;261.67;;
20067;SDS011;10194;50.824;7.134;2023-04-06T06:39:03;285.40;;;260.40;;
20067;SDS011;10194;50.824;7.134;2023-04-06T06:41:29;293.93;;;268.83;;
20067;SDS011;10194;50.824;7.134;2023-04-06T06:43:55;308.57;;;282.67;;
20067;SDS011;10194;50.824;7.134;2023-04-06T06:46:21;314.83;;;288.63;;
20067;SDS011;10194;50.824;7.134;2023-04-06T06:48:47;317.63;;;290.53;;
20067;SDS011;10194;50.824;7.134;2023-04-06T06:51:12;318.13;;;291.07;;
20067;SDS011;10194;50.824;7.134;2023-04-06T06:53:38;317.80;;;290.83;;
20067;SDS011;10194;50.824;7.134;2023-04-06T06:56:04;309.30;;;282.33;;
20067;SDS011;10194;50.824;7.134;2023-04-06T06:58:30;313.30;;;286.23;;
20067;SDS011;10194;50.824;7.134;2023-04-06T07:00:56;310.90;;;283.97;;
20067;SDS011;10194;50.824;7.134;2023-04-06T07:03:23;311.30;;;284.13;;
20067;SDS011;10194;50.824;7.134;2023-04-06T07:05:49;304.03;;;277.33;;
20067;SDS011;10194;50.824;7.134;2023-04-06T07:08:18;301.23;;;274.83;;
20067;SDS011;10194;50.824;7.134;2023-04-06T07:10:45;295.30;;;269.33;;
20067;SDS011;10194;50.824;7.134;2023-04-06T07:13:11;293.73;;;267.80;;
20067;SDS011;10194;50.824;7.134;2023-04-06T07:15:37;290.07;;;264.27;;
20067;SDS011;10194;50.824;7.134;2023-04-06T07:18:03;280.40;;;254.87;;
20067;SDS011;10194;50.824;7.134;2023-04-06T07:20:28;266.03;;;240.27;;
20067;SDS011;10194;50.824;7.134;2023-04-06T07:22:54;232.47;;;207.63;;
20067;SDS011;10194;50.824;7.134;2023-04-06T07:25:20;218.00;;;181.90;;
20067;SDS011;10194;50.824;7.134;2023-04-06T07:27:46;212.13;;;166.73;;
20067;SDS011;10194;50.824;7.134;2023-04-06T07:30:13;218.30;;;170.40;;
20067;SDS011;10194;50.824;7.134;2023-04-06T07:32:39;269.20;;;243.10;;
20067;SDS011;10194;50.824;7.134;2023-04-06T07:35:04;286.57;;;260.40;;
20067;SDS011;10194;50.824;7.134;2023-04-06T07:37:30;276.63;;;251.07;;
20067;SDS011;10194;50.824;7.134;2023-04-06T07:39:56;262.60;;;237.90;;
20067;SDS011;10194;50.824;7.134;2023-04-06T07:42:22;212.63;;;190.60;;
20067;SDS011;10194;50.824;7.134;2023-04-06T07:44:48;212.07;;;189.57;;
20067;SDS011;10194;50.824;7.134;2023-04-06T07:47:14;196.00;;;174.97;;
20067;SDS011;10194;50.824;7.134;2023-04-06T07:49:40;201.57;;;179.97;;
20067;SDS011;10194;50.824;7.134;2023-04-06T07:52:05;174.03;;;142.80;;
20067;SDS011;10194;50.824;7.134;2023-04-06T07:54:31;171.97;;;134.37;;
20067;SDS011;10194;50.824;7.134;2023-04-06T07:56:57;183.70;;;163.23;;
20067;SDS011;10194;50.824;7.134;2023-04-06T07:59:23;173.53;;;147.50;;
20067;SDS011;10194;50.824;7.134;2023-04-06T08:01:49;158.53;;;109.70;;
20067;SDS011;10194;50.824;7.134;2023-04-06T08:04:15;155.57;;;102.10;;
20067;SDS011;10194;50.824;7.134;2023-04-06T08:06:40;151.60;;;98.20;;
20067;SDS011;10194;50.824;7.134;2023-04-06T08:09:06;148.07;;;91.00;;
20067;SDS011;10194;50.824;7.134;2023-04-06T08:11:32;141.57;;;81.07;;
20067;SDS011;10194;50.824;7.134;2023-04-06T08:13:58;147.57;;;95.47;;
20067;SDS011;10194;50.824;7.134;2023-04-06T08:16:24;168.27;;;129.83;;
20067;SDS011;10194;50.824;7.134;2023-04-06T08:18:50;174.97;;;138.93;;
20067;SDS011;10194;50.824;7.134;2023-04-06T08:21:16;182.93;;;150.63;;
20067;SDS011;10194;50.824;7.134;2023-04-06T08:23:41;187.70;;;158.90;;
20067;SDS011;10194;50.824;7.134;2023-04-06T08:26:07;192.43;;;170.77;;
20067;SDS011;10194;50.824;7.134;2023-04-06T08:28:34;225.87;;;203.23;;
20067;SDS011;10194;50.824;7.134;2023-04-06T08:31:04;232.43;;;209.47;;
20067;SDS011;10194;50.824;7.134;2023-04-06T08:33:30;215.83;;;193.50;;
20067;SDS011;10194;50.824;7.134;2023-04-06T08:35:56;214.37;;;191.60;;
20067;SDS011;10194;50.824;7.134;2023-04-06T08:38:22;187.30;;;162.63;;
20067;SDS011;10194;50.824;7.134;2023-04-06T08:40:48;185.17;;;154.77;;
20067;SDS011;10194;50.824;7.134;2023-04-06T08:43:16;206.30;;;184.07;;
20067;SDS011;10194;50.824;7.134;2023-04-06T08:45:44;242.27;;;218.63;;
20067;SDS011;10194;50.824;7.134;2023-04-06T08:48:10;252.83;;;228.93;;
20067;SDS011;10194;50.824;7.134;2023-04-06T08:50:38;261.67;;;236.87;;
20067;SDS011;10194;50.824;7.134;2023-04-06T08:53:05;270.90;;;245.50;;
20067;SDS011;10194;50.824;7.134;2023-04-06T08:55:32;272.13;;;247.03;;
20067;SDS011;10194;50.824;7.134;2023-04-06T08:57:58;263.80;;;239.17;;
20067;SDS011;10194;50.824;7.134;2023-04-06T09:00:25;245.83;;;222.13;;
20067;SDS011;10194;50.824;7.134;2023-04-06T09:02:53;245.33;;;221.13;;
20067;SDS011;10194;50.824;7.134;2023-04-06T09:05:20;241.20;;;217.17;;
20067;SDS011;10194;50.824;7.134;2023-04-06T09:07:46;231.43;;;207.60;;
20067;SDS011;10194;50.824;7.134;2023-04-06T09:10:12;221.13;;;197.90;;
20067;SDS011;10194;50.824;7.134;2023-04-06T09:12:38;221.03;;;197.87;;
20067;SDS011;10194;50.824;7.134;2023-04-06T09:15:04;217.83;;;194.97;;
20067;SDS011;10194;50.824;7.134;2023-04-06T09:17:31;209.23;;;186.57;;
20067;SDS011;10194;50.824;7.134;2023-04-06T09:19:59;217.80;;;194.53;;
20067;SDS011;10194;50.824;7.134;2023-04-06T09:22:40;230.17;;;206.43;;
20067;SDS011;10194;50.824;7.134;2023-04-06T09:25:09;229.13;;;205.17;;
20067;SDS011;10194;50.824;7.134;2023-04-06T09:27:44;225.07;;;201.60;;
20067;SDS011;10194;50.824;7.134;2023-04-06T09:30:12;223.60;;;200.27;;
20067;SDS011;10194;50.824;7.134;2023-04-06T09:32:51;230.87;;;207.13;;
20067;SDS011;10194;50.824;7.134;2023-04-06T09:35:20;224.40;;;201.00;;
20067;SDS011;10194;50.824;7.134;2023-04-06T09:37:47;221.83;;;198.27;;
20067;SDS011;10194;50.824;7.134;2023-04-06T09:40:15;209.00;;;186.00;;
20067;SDS011;10194;50.824;7.134;2023-04-06T09:42:45;210.43;;;187.97;;
20067;SDS011;10194;50.824;7.134;2023-04-06T09:45:13;205.10;;;175.17;;
20067;SDS011;10194;50.824;7.134;2023-04-06T09:47:40;200.67;;;171.00;;
20067;SDS011;10194;50.824;7.134;2023-04-06T09:50:12;199.17;;;163.70;;
20067;SDS011;10194;50.824;7.134;2023-04-06T09:52:51;196.60;;;160.43;;
20067;SDS011;10194;50.824;7.134;2023-04-06T09:55:25;185.93;;;141.20;;
20067;SDS011;10194;50.824;7.134;2023-04-06T09:58:03;184.07;;;139.23;;
20067;SDS011;10194;50.824;7.134;2023-04-06T10:00:32;180.97;;;137.37;;
20067;SDS011;10194;50.824;7.134;2023-04-06T10:06:18;192.23;;;153.33;;
20067;SDS011;10194;50.824;7.134;2023-04-06T10:08:50;184.07;;;141.87;;
20067;SDS011;10194;50.824;7.134;2023-04-06T10:11:20;180.67;;;133.87;;
20067;SDS011;10194;50.824;7.134;2023-04-06T10:13:47;175.07;;;125.20;;
20067;SDS011;10194;50.824;7.134;2023-04-06T10:16:14;170.73;;;120.20;;
20067;SDS011;10194;50.824;7.134;2023-04-06T10:18:49;170.03;;;111.57;;
20067;SDS011;10194;50.824;7.134;2023-04-06T10:21:24;171.67;;;118.03;;
20067;SDS011;10194;50.824;7.134;2023-04-06T10:23:54;163.17;;;108.23;;
20067;SDS011;10194;50.824;7.134;2023-04-06T10:26:24;171.93;;;116.13;;
20067;SDS011;10194;50.824;7.134;2023-04-06T10:28:51;169.10;;;112.27;;
20067;SDS011;10194;50.824;7.134;2023-04-06T10:31:24;165.50;;;108.57;;
20067;SDS011;10194;50.824;7.134;2023-04-06T10:33:55;168.77;;;109.27;;
20067;SDS011;10194;50.824;7.134;2023-04-06T10:36:23;163.30;;;102.43;;
20067;SDS011;10194;50.824;7.134;2023-04-06T10:38:56;161.53;;;98.03;;
20067;SDS011;10194;50.824;7.134;2023-04-06T10:41:35;159.60;;;97.60;;
20067;SDS011;10194;50.824;7.134;2023-04-06T10:44:06;164.83;;;104.03;;
20067;SDS011;10194;50.824;7.134;2023-04-06T10:46:32;166.67;;;107.10;;
20067;SDS011;10194;50.824;7.134;2023-04-06T10:49:11;164.33;;;104.03;;
20067;SDS011;10194;50.824;7.134;2023-04-06T10:51:37;165.43;;;103.63;;
20067;SDS011;10194;50.824;7.134;2023-04-06T10:54:05;162.00;;;99.30;;
20067;SDS011;10194;50.824;7.134;2023-04-06T10:56:33;161.30;;;97.67;;
20067;SDS011;10194;50.824;7.134;2023-04-06T10:59:03;160.30;;;96.63;;
20067;SDS011;10194;50.824;7.134;2023-04-06T11:01:31;160.67;;;98.57;;
20067;SDS011;10194;50.824;7.134;2023-04-06T11:03:57;162.90;;;100.03;;
20067;SDS011;10194;50.824;7.134;2023-04-06T11:06:26;164.60;;;102.77;;
20067;SDS011;10194;50.824;7.134;2023-04-06T11:08:54;158.97;;;92.70;;
20067;SDS011;10194;50.824;7.134;2023-04-06T11:11:23;160.57;;;96.37;;
20067;SDS011;10194;50.824;7.134;2023-04-06T11:13:58;163.17;;;99.53;;
20067;SDS011;10194;50.824;7.134;2023-04-06T11:16:26;162.37;;;100.90;;
20067;SDS011;10194;50.824;7.134;2023-04-06T11:18:59;166.10;;;101.67;;
20067;SDS011;10194;50.824;7.134;2023-04-06T11:21:32;161.03;;;97.83;;
20067;SDS011;10194;50.824;7.134;2023-04-06T11:26:53;163.23;;;103.60;;
20067;SDS011;10194;50.824;7.134;2023-04-06T11:29:28;164.70;;;100.83;;
20067;SDS011;10194;50.824;7.134;2023-04-06T11:31:59;160.63;;;96.40;;
20067;SDS011;10194;50.824;7.134;2023-04-06T11:34:30;158.97;;;93.43;;
20067;SDS011;10194;50.824;7.134;2023-04-06T11:37:04;160.20;;;93.83;;
20067;SDS011;10194;50.824;7.134;2023-04-06T11:39:38;157.00;;;93.53;;
20067;SDS011;10194;50.824;7.134;2023-04-06T11:42:12;159.17;;;91.67;;
20067;SDS011;10194;50.824;7.134;2023-04-06T11:44:46;153.10;;;88.00;;
20067;SDS011;10194;50.824;7.134;2023-04-06T11:47:16;184.03;;;92.67;;
20067;SDS011;10194;50.824;7.134;2023-04-06T11:49:42;158.87;;;89.10;;
20067;SDS011;10194;50.824;7.134;2023-04-06T11:52:19;156.00;;;90.30;;
20067;SDS011;10194;50.824;7.134;2023-04-06T11:54:48;152.27;;;87.10;;
20067;SDS011;10194;50.824;7.134;2023-04-06T11:57:16;156.63;;;90.70;;
20067;SDS011;10194;50.824;7.134;2023-04-06T11:59:43;156.70;;;93.20;;
20067;SDS011;10194;50.824;7.134;2023-04-06T12:02:10;157.00;;;90.07;;
20067;SDS011;10194;50.824;7.134;2023-04-06T12:04:36;153.30;;;88.27;;
20067;SDS011;10194;50.824;7.134;2023-04-06T12:07:03;155.13;;;89.03;;
20067;SDS011;10194;50.824;7.134;2023-04-06T12:09:30;158.27;;;89.37;;
20067;SDS011;10194;50.824;7.134;2023-04-06T12:11:56;154.87;;;85.63;;
20067;SDS011;10194;50.824;7.134;2023-04-06T12:14:22;147.83;;;83.57;;
20067;SDS011;10194;50.824;7.134;2023-04-06T12:16:48;153.23;;;85.67;;
20067;SDS011;10194;50.824;7.134;2023-04-06T12:19:14;152.17;;;85.63;;
20067;SDS011;10194;50.824;7.134;2023-04-06T12:21:40;150.73;;;85.63;;
20067;SDS011;10194;50.824;7.134;2023-04-06T12:24:07;151.60;;;86.20;;
20067;SDS011;10194;50.824;7.134;2023-04-06T12:26:33;153.43;;;87.67;;
20067;SDS011;10194;50.824;7.134;2023-04-06T12:29:01;151.67;;;85.60;;
20067;SDS011;10194;50.824;7.134;2023-04-06T12:31:31;155.50;;;87.83;;
20067;SDS011;10194;50.824;7.134;2023-04-06T12:33:59;154.20;;;87.43;;
20067;SDS011;10194;50.824;7.134;2023-04-06T12:36:28;157.70;;;90.43;;
20067;SDS011;10194;50.824;7.134;2023-04-06T12:38:54;154.77;;;89.27;;
20067;SDS011;10194;50.824;7.134;2023-04-06T12:41:20;152.57;;;86.27;;
20067;SDS011;10194;50.824;7.134;2023-04-06T12:43:49;152.03;;;86.37;;
20067;SDS011;10194;50.824;7.134;2023-04-06T12:46:16;150.50;;;86.40;;
20067;SDS011;10194;50.824;7.134;2023-04-06T12:48:42;151.63;;;85.80;;
20067;SDS011;10194;50.824;7.134;2023-04-06T12:51:08;155.80;;;88.50;;
20067;SDS011;10194;50.824;7.134;2023-04-06T12:53:34;151.57;;;84.80;;
20067;SDS011;10194;50.824;7.134;2023-04-06T12:56:00;157.37;;;88.57;;
20067;SDS011;10194;50.824;7.134;2023-04-06T12:58:27;150.40;;;84.00;;
20067;SDS011;10194;50.824;7.134;2023-04-06T13:00:54;150.40;;;85.17;;
20067;SDS011;10194;50.824;7.134;2023-04-06T13:03:23;159.97;;;89.30;;
20067;SDS011;10194;50.824;7.134;2023-04-06T13:05:50;149.53;;;85.07;;
20067;SDS011;10194;50.824;7.134;2023-04-06T13:08:16;154.23;;;89.87;;
20067;SDS011;10194;50.824;7.134;2023-04-06T13:10:47;152.77;;;85.83;;
20067;SDS011;10194;50.824;7.134;2023-04-06T13:13:15;151.43;;;84.17;;
20067;SDS011;10194;50.824;7.134;2023-04-06T13:15:42;152.77;;;86.70;;
20067;SDS011;10194;50.824;7.134;2023-04-06T13:18:10;152.80;;;86.63;;
20067;SDS011;10194;50.824;7.134;2023-04-06T13:20:36;149.43;;;85.47;;
20067;SDS011;10194;50.824;7.134;2023-04-06T13:23:02;153.80;;;85.13;;
20067;SDS011;10194;50.824;7.134;2023-04-06T13:25:28;163.03;;;88.83;;
20067;SDS011;10194;50.824;7.134;2023-04-06T13:27:55;148.73;;;83.20;;
20067;SDS011;10194;50.824;7.134;2023-04-06T13:30:21;150.60;;;84.27;;
20067;SDS011;10194;50.824;7.134;2023-04-06T13:32:47;149.50;;;82.67;;
20067;SDS011;10194;50.824;7.134;2023-04-06T13:35:13;153.27;;;82.57;;
20067;SDS011;10194;50.824;7.134;2023-04-06T13:37:38;155.17;;;84.87;;
20067;SDS011;10194;50.824;7.134;2023-04-06T13:40:05;150.37;;;83.60;;
20067;SDS011;10194;50.824;7.134;2023-04-06T13:42:31;146.37;;;82.60;;
20067;SDS011;10194;50.824;7.134;2023-04-06T13:44:57;144.57;;;81.27;;
20067;SDS011;10194;50.824;7.134;2023-04-06T13:47:24;143.03;;;80.43;;
20067;SDS011;10194;50.824;7.134;2023-04-06T13:49:50;144.57;;;82.70;;
20067;SDS011;10194;50.824;7.134;2023-04-06T13:52:17;145.40;;;80.87;;
20067;SDS011;10194;50.824;7.134;2023-04-06T13:54:44;147.20;;;82.50;;
20067;SDS011;10194;50.824;7.134;2023-04-06T13:57:10;145.23;;;84.33;;
20067;SDS011;10194;50.824;7.134;2023-04-06T13:59:37;150.90;;;85.63;;
20067;SDS011;10194;50.824;7.134;2023-04-06T14:02:04;151.80;;;89.30;;
20067;SDS011;10194;50.824;7.134;2023-04-06T14:04:32;152.53;;;92.77;;